Observation data for Goodlett on 05/27/2019      Previous  Date  Next       Current Mesonet Observations  Soil Data  Daily Summary Page  Observations in Plain Language
KGDS 270500Z 12007KT 22/18 A2984 RMK A01 T02170184  RH  086%=      5-min Rain = 0
KGDS 270505Z 12007KT 22/18 A2984 RMK A01 T02150184  RH  087%=      5-min Rain = 0
KGDS 270510Z 11007KT 21/18 A2984 RMK A01 T02140184  RH  087%=      5-min Rain = 0
KGDS 270515Z 11008KT 21/18 A2983 RMK A01 T02140183  RH  087%=      5-min Rain = 0
KGDS 270520Z 11007KT 21/18 A2983 RMK A01 T02140183  RH  087%=      5-min Rain = 0
KGDS 270525Z 11007KT 22/18 A2984 RMK A01 T02150183  RH  087%=      5-min Rain = 0
KGDS 270530Z 11007KT 21/18 A2983 RMK A01 T02140183  RH  087%=      5-min Rain = 0
KGDS 270535Z 11008KT 22/18 A2983 RMK A01 T02150183  RH  087%=      5-min Rain = 0
KGDS 270540Z 11008KT 22/18 A2983 RMK A01 T02170184  RH  086%=      5-min Rain = 0
KGDS 270545Z 12009KT 22/18 A2983 RMK A01 T02180184  RH  085%=      5-min Rain = 0
KGDS 270550Z 12008KT 22/18 A2983 RMK A01 T02170184  RH  086%=      5-min Rain = 0
KGDS 270555Z 12009KT 22/18 A2983 RMK A01 T02180183  RH  085%=      5-min Rain = 0
KGDS 270600Z 12009KT 22/18 A2982 RMK A01 T02190183  RH  085%=      5-min Rain = 0
KGDS 270605Z 12009G14KT 22/18 A2982 RMK A01 T02190183  RH  084%=      5-min Rain = 0
KGDS 270610Z 13009KT 22/18 A2982 RMK A01 T02200183  RH  084%=      5-min Rain = 0
KGDS 270615Z 13010KT 22/18 A2982 RMK A01 T02200183  RH  084%=      5-min Rain = 0
KGDS 270620Z 13011KT 22/18 A2981 RMK A01 T02200182  RH  083%=      5-min Rain = 0
KGDS 270625Z 14010KT 22/18 A2982 RMK A01 T02210182  RH  083%=      5-min Rain = 0
KGDS 270630Z 14011KT 22/18 A2981 RMK A01 T02220182  RH  082%=      5-min Rain = 0
KGDS 270635Z 13012KT 22/18 A2981 RMK A01 T02210181  RH  082%=      5-min Rain = 0
KGDS 270640Z 14013G18KT 22/18 A2981 RMK A01 T02200181  RH  083%=      5-min Rain = 0
KGDS 270645Z 14011KT 22/18 A2981 RMK A01 T02210181  RH  083%=      5-min Rain = 0
KGDS 270650Z 14011KT 22/18 A2981 RMK A01 T02190181  RH  083%=      5-min Rain = 0
KGDS 270655Z 14009KT 22/18 A2981 RMK A01 T02190181  RH  083%=      5-min Rain = 0
KGDS 270700Z 15007KT 22/18 A2982 RMK A01 T02200180  RH  083%=      5-min Rain = 0
KGDS 270705Z 14005KT 22/18 A2982 RMK A01 T02190180  RH  083%=      5-min Rain = 0
KGDS 270710Z 14004KT 22/18 A2983 RMK A01 T02170180  RH  084%=      5-min Rain = 0
KGDS 270715Z 14004KT 22/18 A2983 RMK A01 T02170180  RH  084%=      5-min Rain = 0
KGDS 270720Z 14004KT 22/18 A2983 RMK A01 T02170180  RH  084%=      5-min Rain = 0
KGDS 270725Z 13008KT 22/18 A2982 RMK A01 T02160180  RH  084%=      5-min Rain = 0
KGDS 270730Z 13009KT 22/18 A2981 RMK A01 T02160180  RH  084%=      5-min Rain = 0
KGDS 270735Z 14007KT 22/18 A2982 RMK A01 T02160180  RH  084%=      5-min Rain = 0
KGDS 270740Z 14007KT 22/18 A2982 RMK A01 T02150180  RH  085%=      5-min Rain = 0
KGDS 270745Z 15004KT 21/18 A2983 RMK A01 T02140180  RH  085%=      5-min Rain = 0
KGDS 270750Z 19002KT 21/18 A2985 RMK A01 T02130180  RH  086%=      5-min Rain = 0
KGDS 270755Z 25003KT 21/18 A2986 RMK A01 T02120181  RH  087%=      5-min Rain = 0
KGDS 270800Z 18003KT 21/18 A2985 RMK A01 T02110182  RH  088%=      5-min Rain = 0
KGDS 270805Z 14006KT 21/18 A2984 RMK A01 T02110181  RH  087%=      5-min Rain = 0
KGDS 270810Z 17003KT 21/18 A2985 RMK A01 T02100180  RH  087%=      5-min Rain = 0
KGDS 270815Z 16005KT 21/18 A2984 RMK A01 T02110180  RH  087%=      5-min Rain = 0
KGDS 270820Z 15008KT 21/18 A2983 RMK A01 T02100180  RH  088%=      5-min Rain = 0
KGDS 270825Z 16006KT 21/18 A2983 RMK A01 T02110180  RH  087%=      5-min Rain = 0
KGDS 270830Z 18004KT 21/18 A2984 RMK A01 T02110180  RH  087%=      5-min Rain = 0
KGDS 270835Z 15008KT 21/18 A2982 RMK A01 T02100180  RH  088%=      5-min Rain = 0
KGDS 270840Z 16008KT 21/18 A2982 RMK A01 T02090180  RH  088%=      5-min Rain = 0
KGDS 270845Z 16008KT 21/18 A2982 RMK A01 T02080180  RH  088%=      5-min Rain = 0
KGDS 270850Z 15007KT 21/18 A2982 RMK A01 T02070180  RH  089%=      5-min Rain = 0
KGDS 270855Z 15008KT 21/18 A2982 RMK A01 T02050179  RH  090%=      5-min Rain = 0
KGDS 270900Z 15008KT 20/18 A2982 RMK A01 T02040179  RH  090%=      5-min Rain = 0
KGDS 270905Z 14008KT 20/18 A2982 RMK A01 T02040179  RH  090%=      5-min Rain = 0
KGDS 270910Z 14008KT 20/18 A2981 RMK A01 T02030179  RH  091%=      5-min Rain = 0
KGDS 270915Z 15009KT 20/18 A2981 RMK A01 T02020179  RH  091%=      5-min Rain = 0
KGDS 270920Z 15009KT 20/18 A2981 RMK A01 T02030179  RH  091%=      5-min Rain = 0
KGDS 270925Z 15008KT 20/18 A2981 RMK A01 T02030179  RH  091%=      5-min Rain = 0
KGDS 270930Z 15007KT 20/18 A2982 RMK A01 T02020179  RH  091%=      5-min Rain = 0
KGDS 270935Z 15007KT 20/18 A2982 RMK A01 T02020179  RH  091%=      5-min Rain = 0
KGDS 270940Z 15007KT 20/18 A2982 RMK A01 T02010179  RH  092%=      5-min Rain = 0
KGDS 270945Z 15007KT 20/18 A2982 RMK A01 T02000179  RH  092%=      5-min Rain = 0
KGDS 270950Z 14007KT 20/18 A2981 RMK A01 T01990178  RH  092%=      5-min Rain = 0
KGDS 270955Z 14007KT 20/18 A2981 RMK A01 T02000178  RH  092%=      5-min Rain = 0
KGDS 271000Z 14008KT 20/18 A2981 RMK A01 T01990178  RH  092%=      5-min Rain = 0
KGDS 271005Z 14009KT 20/18 A2981 RMK A01 T02000178  RH  092%=      5-min Rain = 0
KGDS 271010Z 14009KT 20/18 A2981 RMK A01 T02000179  RH  092%=      5-min Rain = 0
KGDS 271015Z 14009KT 20/18 A2981 RMK A01 T02010179  RH  092%=      5-min Rain = 0
KGDS 271020Z 14009KT 20/18 A2982 RMK A01 T02010178  RH  092%=      5-min Rain = 0
KGDS 271025Z 14008KT 20/18 A2982 RMK A01 T02010178  RH  092%=      5-min Rain = 0
KGDS 271030Z 14008KT 20/18 A2982 RMK A01 T02010179  RH  092%=      5-min Rain = 0
KGDS 271035Z 14009KT 20/18 A2982 RMK A01 T02010179  RH  092%=      5-min Rain = 0
KGDS 271040Z 14008KT 20/18 A2982 RMK A01 T02010178  RH  092%=      5-min Rain = 0
KGDS 271045Z 14009KT 20/18 A2981 RMK A01 T02010179  RH  092%=      5-min Rain = 0
KGDS 271050Z 14009KT 20/18 A2981 RMK A01 T02000178  RH  092%=      5-min Rain = 0
KGDS 271055Z 14009KT 20/18 A2981 RMK A01 T02000178  RH  092%=      5-min Rain = 0
KGDS 271100Z 14009KT 20/18 A2981 RMK A01 T02000178  RH  092%=      5-min Rain = 0
KGDS 271105Z 14009KT 20/18 A2982 RMK A01 T02000178  RH  092%=      5-min Rain = 0
KGDS 271110Z 14009KT 20/18 A2982 RMK A01 T02000178  RH  092%=      5-min Rain = 0
KGDS 271115Z 14009KT 20/18 A2982 RMK A01 T02010178  RH  092%=      5-min Rain = 0
KGDS 271120Z 14009KT 20/18 A2982 RMK A01 T02010179  RH  092%=      5-min Rain = 0
KGDS 271125Z 14009KT 20/18 A2982 RMK A01 T02020179  RH  091%=      5-min Rain = 0
KGDS 271130Z 14008KT 20/18 A2982 RMK A01 T02030179  RH  091%=      5-min Rain = 0
KGDS 271135Z 14009KT 20/18 A2982 RMK A01 T02030179  RH  091%=      5-min Rain = 0
KGDS 271140Z 14009KT 20/18 A2982 RMK A01 T02030179  RH  091%=      5-min Rain = 0
KGDS 271145Z 14008KT 20/18 A2982 RMK A01 T02030179  RH  091%=      5-min Rain = 0
KGDS 271150Z 14009KT 20/18 A2982 RMK A01 T02030180  RH  091%=      5-min Rain = 0
KGDS 271155Z 14008KT 20/18 A2982 RMK A01 T02040180  RH  091%=      5-min Rain = 0
KGDS 271200Z 14009KT 20/18 A2982 RMK A01 T02040180  RH  091%=      5-min Rain = 0
KGDS 271205Z 14008KT 21/18 A2983 RMK A01 T02050180  RH  090%=      5-min Rain = 0
KGDS 271210Z 15007KT 21/18 A2983 RMK A01 T02050180  RH  091%=      5-min Rain = 0
KGDS 271215Z 15008KT 21/18 A2983 RMK A01 T02060181  RH  090%=      5-min Rain = 0
KGDS 271220Z 15009KT 21/18 A2983 RMK A01 T02070181  RH  090%=      5-min Rain = 0
KGDS 271225Z 14008KT 21/18 A2983 RMK A01 T02070181  RH  090%=      5-min Rain = 0
KGDS 271230Z 14008KT 21/18 A2984 RMK A01 T02080182  RH  090%=      5-min Rain = 0
KGDS 271235Z 14009KT 21/18 A2984 RMK A01 T02090182  RH  089%=      5-min Rain = 0
KGDS 271240Z 14009KT 21/18 A2984 RMK A01 T02100183  RH  089%=      5-min Rain = 0
KGDS 271245Z 14008KT 21/18 A2984 RMK A01 T02110183  RH  089%=      5-min Rain = 0
KGDS 271250Z 14009KT 21/18 A2984 RMK A01 T02110183  RH  088%=      5-min Rain = 0
KGDS 271255Z 15009KT 21/18 A2984 RMK A01 T02120184  RH  088%=      5-min Rain = 0
KGDS 271300Z 15008KT 21/18 A2984 RMK A01 T02130184  RH  088%=      5-min Rain = 0
KGDS 271305Z 14008KT 22/19 A2984 RMK A01 T02150185  RH  088%=      5-min Rain = 0
KGDS 271310Z 14008KT 22/19 A2984 RMK A01 T02150186  RH  088%=      5-min Rain = 0
KGDS 271315Z 15008KT 22/19 A2984 RMK A01 T02170186  RH  087%=      5-min Rain = 0
KGDS 271320Z 15008KT 22/19 A2984 RMK A01 T02180186  RH  087%=      5-min Rain = 0
KGDS 271325Z 15009KT 22/19 A2984 RMK A01 T02190187  RH  087%=      5-min Rain = 0
KGDS 271330Z 15009KT 22/19 A2984 RMK A01 T02200187  RH  086%=      5-min Rain = 0
KGDS 271335Z 15008KT 22/19 A2984 RMK A01 T02230188  RH  086%=      5-min Rain = 0
KGDS 271340Z 15009KT 22/19 A2984 RMK A01 T02240188  RH  085%=      5-min Rain = 0
KGDS 271345Z 15010KT 23/19 A2984 RMK A01 T02260189  RH  084%=      5-min Rain = 0
KGDS 271350Z 15009KT 23/19 A2984 RMK A01 T02260189  RH  084%=      5-min Rain = 0
KGDS 271355Z 15010KT 23/19 A2984 RMK A01 T02270190  RH  084%=      5-min Rain = 0
KGDS 271400Z 15011KT 23/19 A2984 RMK A01 T02280190  RH  084%=      5-min Rain = 0
KGDS 271405Z 15010KT 23/19 A2984 RMK A01 T02290191  RH  083%=      5-min Rain = 0
KGDS 271410Z 15011KT 23/19 A2984 RMK A01 T02300191  RH  083%=      5-min Rain = 0
KGDS 271415Z 16010KT 23/19 A2984 RMK A01 T02320192  RH  083%=      5-min Rain = 0
KGDS 271420Z 16010KT 23/19 A2984 RMK A01 T02330192  RH  082%=      5-min Rain = 0
KGDS 271425Z 16010G15KT 24/19 A2984 RMK A01 T02360194  RH  081%=      5-min Rain = 0
KGDS 271430Z 16012KT 24/19 A2984 RMK A01 T02380193  RH  081%=      5-min Rain = 0
KGDS 271435Z 16011G19KT 24/19 A2984 RMK A01 T02390194  RH  080%=      5-min Rain = 0
KGDS 271440Z 16013KT 24/19 A2984 RMK A01 T02400192  RH  079%=      5-min Rain = 0
KGDS 271445Z 17012KT 24/19 A2984 RMK A01 T02400193  RH  079%=      5-min Rain = 0
KGDS 271450Z 17012G18KT 24/19 A2984 RMK A01 T02410192  RH  079%=      5-min Rain = 0
KGDS 271455Z 16012G17KT 24/19 A2984 RMK A01 T02430194  RH  079%=      5-min Rain = 0
KGDS 271500Z 17013KT 24/19 A2984 RMK A01 T02420192  RH  078%=      5-min Rain = 0
KGDS 271505Z 18012G17KT 24/19 A2984 RMK A01 T02410193  RH  079%=      5-min Rain = 0
KGDS 271510Z 18012KT 24/19 A2984 RMK A01 T02420193  RH  079%=      5-min Rain = 0
KGDS 271515Z 17013KT 24/19 A2984 RMK A01 T02420193  RH  078%=      5-min Rain = 0
KGDS 271520Z 17012KT 24/19 A2984 RMK A01 T02420193  RH  078%=      5-min Rain = 0
KGDS 271525Z 17012KT 24/19 A2984 RMK A01 T02420193  RH  078%=      5-min Rain = 0
KGDS 271530Z 17014G21KT 25/19 A2983 RMK A01 T02450193  RH  077%=      5-min Rain = 0
KGDS 271535Z 17013G18KT 25/19 A2983 RMK A01 T02460194  RH  077%=      5-min Rain = 0
KGDS 271540Z 17013KT 25/19 A2983 RMK A01 T02480194  RH  076%=      5-min Rain = 0
KGDS 271545Z 17014KT 25/19 A2983 RMK A01 T02490194  RH  076%=      5-min Rain = 0
KGDS 271550Z 18014KT 25/19 A2983 RMK A01 T02500194  RH  075%=      5-min Rain = 0
KGDS 271555Z 17015KT 25/19 A2983 RMK A01 T02520194  RH  075%=      5-min Rain = 0
KGDS 271600Z 17015KT 25/20 A2983 RMK A01 T02530195  RH  074%=      5-min Rain = 0
KGDS 271605Z 17014KT 26/20 A2983 RMK A01 T02570197  RH  074%=      5-min Rain = 0
KGDS 271610Z 17014G19KT 26/20 A2983 RMK A01 T02560196  RH  074%=      5-min Rain = 0
KGDS 271615Z 16014G19KT 26/20 A2983 RMK A01 T02560196  RH  074%=      5-min Rain = 0
KGDS 271620Z 17013G18KT 26/20 A2983 RMK A01 T02560197  RH  074%=      5-min Rain = 0
KGDS 271625Z 16015KT 26/20 A2983 RMK A01 T02560195  RH  073%=      5-min Rain = 0
KGDS 271630Z 17015KT 26/20 A2983 RMK A01 T02570196  RH  073%=      5-min Rain = 0
KGDS 271635Z 17014KT 26/20 A2982 RMK A01 T02590196  RH  073%=      5-min Rain = 0
KGDS 271640Z 16015KT 26/20 A2982 RMK A01 T02600197  RH  072%=      5-min Rain = 0
KGDS 271645Z 16014G19KT 26/20 A2982 RMK A01 T02620198  RH  072%=      5-min Rain = 0
KGDS 271650Z 17014KT 27/20 A2982 RMK A01 T02660200  RH  071%=      5-min Rain = 0
KGDS 271655Z 17014KT 27/20 A2982 RMK A01 T02680200  RH  070%=      5-min Rain = 0
KGDS 271700Z 17014KT 27/20 A2982 RMK A01 T02700202  RH  070%=      5-min Rain = 0
KGDS 271705Z 16014KT 27/20 A2982 RMK A01 T02680200  RH  070%=      5-min Rain = 0
KGDS 271710Z 16015G20KT 27/20 A2982 RMK A01 T02680199  RH  070%=      5-min Rain = 0
KGDS 271715Z 17012G19KT 27/20 A2982 RMK A01 T02700202  RH  071%=      5-min Rain = 0
KGDS 271720Z 16013KT 27/20 A2982 RMK A01 T02710200  RH  069%=      5-min Rain = 0
KGDS 271725Z 16011KT 27/20 A2982 RMK A01 T02720203  RH  070%=      5-min Rain = 0
KGDS 271730Z 16014G19KT 27/20 A2982 RMK A01 T02730202  RH  069%=      5-min Rain = 0
KGDS 271735Z 17013G18KT 28/20 A2981 RMK A01 T02750202  RH  069%=      5-min Rain = 0
KGDS 271740Z 17013KT 28/20 A2981 RMK A01 T02760203  RH  068%=      5-min Rain = 0
KGDS 271745Z 17012KT 28/20 A2981 RMK A01 T02760202  RH  068%=      5-min Rain = 0
KGDS 271750Z 16011KT 28/20 A2981 RMK A01 T02770204  RH  068%=      5-min Rain = 0
KGDS 271755Z 15012G17KT 28/21 A2981 RMK A01 T02790205  RH  068%=      5-min Rain = 0
KGDS 271800Z 15014G19KT 28/20 A2981 RMK A01 T02780204  RH  068%=      5-min Rain = 0
KGDS 271805Z 15013KT 28/21 A2981 RMK A01 T02800205  RH  067%=      5-min Rain = 0
KGDS 271810Z 16012G17KT 28/20 A298 RMK A01 T02800204  RH  067%=      5-min Rain = 0
KGDS 271815Z 16013KT 28/21 A298 RMK A01 T02830205  RH  067%=      5-min Rain = 0
KGDS 271820Z 15014KT 29/21 A298 RMK A01 T02850205  RH  066%=      5-min Rain = 0
KGDS 271825Z 16013KT 28/20 A298 RMK A01 T02830204  RH  066%=      5-min Rain = 0
KGDS 271830Z 16013G19KT 28/20 A2979 RMK A01 T02800202  RH  066%=      5-min Rain = 0
KGDS 271835Z 16014G19KT 28/20 A2979 RMK A01 T02830204  RH  066%=      5-min Rain = 0
KGDS 271840Z 16013G18KT 29/21 A2979 RMK A01 T02870205  RH  065%=      5-min Rain = 0
KGDS 271845Z 16012G17KT 29/21 A2979 RMK A01 T02910206  RH  064%=      5-min Rain = 0
KGDS 271850Z 17013G19KT 29/21 A2978 RMK A01 T02910205  RH  063%=      5-min Rain = 0
KGDS 271855Z 16015KT 29/20 A2978 RMK A01 T02900203  RH  063%=      5-min Rain = 0
KGDS 271900Z 16014KT 29/20 A2978 RMK A01 T02920203  RH  062%=      5-min Rain = 0
KGDS 271905Z 16013G18KT 29/20 A2978 RMK A01 T02910202  RH  062%=      5-min Rain = 0
KGDS 271910Z 16015KT 29/20 A2977 RMK A01 T02930204  RH  062%=      5-min Rain = 0
KGDS 271915Z 17014KT 30/20 A2977 RMK A01 T02950204  RH  061%=      5-min Rain = 0
KGDS 271920Z 15013G18KT 30/20 A2977 RMK A01 T02950203  RH  061%=      5-min Rain = 0
KGDS 271925Z 18014G19KT 30/20 A2977 RMK A01 T02960201  RH  060%=      5-min Rain = 0
KGDS 271930Z 17014KT 30/20 A2977 RMK A01 T02990203  RH  060%=      5-min Rain = 0
KGDS 271935Z 17013G19KT 30/20 A2977 RMK A01 T02960202  RH  060%=      5-min Rain = 0
KGDS 271940Z 17015G20KT 30/20 A2977 RMK A01 T03000201  RH  059%=      5-min Rain = 0
KGDS 271945Z 17014G20KT 30/20 A2976 RMK A01 T03000201  RH  059%=      5-min Rain = 0
KGDS 271950Z 17015KT 30/20 A2976 RMK A01 T03020200  RH  058%=      5-min Rain = 0
KGDS 271955Z 19013KT 31/20 A2976 RMK A01 T03060203  RH  057%=      5-min Rain = 0
KGDS 272000Z 16013KT 30/20 A2976 RMK A01 T03040203  RH  058%=      5-min Rain = 0
KGDS 272005Z 17013KT 31/20 A2976 RMK A01 T03060204  RH  058%=      5-min Rain = 0
KGDS 272010Z 18014G19KT 31/20 A2976 RMK A01 T03060200  RH  056%=      5-min Rain = 0
KGDS 272015Z 17014KT 31/20 A2975 RMK A01 T03060204  RH  058%=      5-min Rain = 0
KGDS 272020Z 17015KT 31/20 A2975 RMK A01 T03050201  RH  057%=      5-min Rain = 0
KGDS 272025Z 17011G18KT 31/20 A2975 RMK A01 T03070203  RH  057%=      5-min Rain = 0
KGDS 272030Z 16013KT 31/20 A2974 RMK A01 T03070203  RH  057%=      5-min Rain = 0
KGDS 272035Z 15015G20KT 31/20 A2974 RMK A01 T03060202  RH  057%=      5-min Rain = 0
KGDS 272040Z 16014G19KT 31/20 A2974 RMK A01 T03070202  RH  057%=      5-min Rain = 0
KGDS 272045Z 17013G18KT 31/20 A2974 RMK A01 T03090196  RH  054%=      5-min Rain = 0
KGDS 272050Z 16012G17KT 31/20 A2973 RMK A01 T03110202  RH  055%=      5-min Rain = 0
KGDS 272055Z 16012G18KT 31/20 A2973 RMK A01 T03100201  RH  055%=      5-min Rain = 0
KGDS 272100Z 16013G18KT 31/20 A2972 RMK A01 T03100201  RH  055%=      5-min Rain = 0
KGDS 272105Z 16014KT 31/20 A2972 RMK A01 T03100200  RH  055%=      5-min Rain = 0
KGDS 272110Z 16014G20KT 31/20 A2972 RMK A01 T03110201  RH  055%=      5-min Rain = 0
KGDS 272115Z 16013G18KT 31/20 A2971 RMK A01 T03120201  RH  055%=      5-min Rain = 0
KGDS 272120Z 16012KT 31/20 A2971 RMK A01 T03100200  RH  055%=      5-min Rain = 0
KGDS 272125Z 16012G17KT 31/20 A2971 RMK A01 T03130201  RH  055%=      5-min Rain = 0
KGDS 272130Z 16013KT 31/20 A2971 RMK A01 T03120200  RH  054%=      5-min Rain = 0
KGDS 272135Z 17015G21KT 31/20 A2971 RMK A01 T03120195  RH  053%=      5-min Rain = 0
KGDS 272140Z 15013KT 31/19 A2971 RMK A01 T03110193  RH  052%=      5-min Rain = 0
KGDS 272145Z 17014G19KT 31/20 A2971 RMK A01 T03120197  RH  053%=      5-min Rain = 0
KGDS 272150Z 17014KT 31/20 A297 RMK A01 T03120196  RH  053%=      5-min Rain = 0
KGDS 272155Z 17013KT 31/19 A297 RMK A01 T03130194  RH  052%=      5-min Rain = 0
KGDS 272200Z 16014KT 31/20 A297 RMK A01 T03140197  RH  053%=      5-min Rain = 0
KGDS 272205Z 16013KT 31/20 A2969 RMK A01 T03140195  RH  052%=      5-min Rain = 0
KGDS 272210Z 16015G22KT 31/19 A2969 RMK A01 T03140194  RH  052%=      5-min Rain = 0
KGDS 272215Z 16014G19KT 31/19 A2969 RMK A01 T03130193  RH  052%=      5-min Rain = 0
KGDS 272220Z 16013KT 31/19 A2969 RMK A01 T03140193  RH  051%=      5-min Rain = 0
KGDS 272225Z 15013KT 31/19 A2969 RMK A01 T03140193  RH  051%=      5-min Rain = 0
KGDS 272230Z 17013KT 31/19 A2969 RMK A01 T03130191  RH  051%=      5-min Rain = 0
KGDS 272235Z 16014G19KT 31/19 A2968 RMK A01 T03140191  RH  051%=      5-min Rain = 0
KGDS 272240Z 16015G20KT 31/19 A2968 RMK A01 T03140185  RH  049%=      5-min Rain = 0
KGDS 272245Z 16013G18KT 31/19 A2968 RMK A01 T03130188  RH  050%=      5-min Rain = 0
KGDS 272250Z 16014KT 31/18 A2968 RMK A01 T03130183  RH  049%=      5-min Rain = 0
KGDS 272255Z 15014KT 31/19 A2968 RMK A01 T03140185  RH  049%=      5-min Rain = 0
KGDS 272300Z 16012G17KT 32/19 A2968 RMK A01 T03150189  RH  050%=      5-min Rain = 0
KGDS 272305Z 17013KT 31/19 A2968 RMK A01 T03140186  RH  049%=      5-min Rain = 0
KGDS 272310Z 17013KT 31/19 A2967 RMK A01 T03130185  RH  049%=      5-min Rain = 0
KGDS 272315Z 16011G16KT 31/19 A2967 RMK A01 T03130191  RH  051%=      5-min Rain = 0
KGDS 272320Z 17012G17KT 31/19 A2967 RMK A01 T03130188  RH  050%=      5-min Rain = 0
KGDS 272325Z 17011KT 31/20 A2967 RMK A01 T03130195  RH  052%=      5-min Rain = 0
KGDS 272330Z 17011G16KT 31/20 A2967 RMK A01 T03130195  RH  052%=      5-min Rain = 0
KGDS 272335Z 17012KT 31/20 A2967 RMK A01 T03120196  RH  053%=      5-min Rain = 0
KGDS 272340Z 17011KT 31/20 A2967 RMK A01 T03110198  RH  054%=      5-min Rain = 0
KGDS 272345Z 16013G20KT 31/20 A2967 RMK A01 T03110196  RH  054%=      5-min Rain = 0
KGDS 272350Z 15014G20KT 31/20 A2967 RMK A01 T03100197  RH  054%=      5-min Rain = 0
KGDS 272355Z 15015KT 31/20 A2967 RMK A01 T03080196  RH  054%=      5-min Rain = 0
KGDS 280000Z 15014G19KT 31/20 A2967 RMK A01 T03060197  RH  055%=      5-min Rain = 0
KGDS 280005Z 16015KT 31/20 A2966 RMK A01 T03050196  RH  055%=      5-min Rain = 0
KGDS 280010Z 16014G22KT 30/20 A2966 RMK A01 T03030198  RH  057%=      5-min Rain = 0
KGDS 280015Z 15017G24KT 30/19 A2966 RMK A01 T03020194  RH  056%=      5-min Rain = 0
KGDS 280020Z 15017KT 30/19 A2966 RMK A01 T03000194  RH  056%=      5-min Rain = 0
KGDS 280025Z 15015G20KT 30/20 A2966 RMK A01 T02990196  RH  057%=      5-min Rain = 0
KGDS 280030Z 15015G20KT 30/20 A2966 RMK A01 T02980197  RH  058%=      5-min Rain = 0
KGDS 280035Z 15014G20KT 30/20 A2966 RMK A01 T02960197  RH  058%=      5-min Rain = 0
KGDS 280040Z 15015KT 30/20 A2966 RMK A01 T02950196  RH  059%=      5-min Rain = 0
KGDS 280045Z 15015KT 29/20 A2966 RMK A01 T02940195  RH  058%=      5-min Rain = 0
KGDS 280050Z 15011KT 29/20 A2966 RMK A01 T02920198  RH  060%=      5-min Rain = 0
KGDS 280055Z 14013G19KT 29/20 A2966 RMK A01 T02890198  RH  061%=      5-min Rain = 0
KGDS 280100Z 14013G18KT 29/20 A2966 RMK A01 T02880199  RH  062%=      5-min Rain = 0
KGDS 280105Z 14012KT 29/20 A2966 RMK A01 T02850199  RH  063%=      5-min Rain = 0
KGDS 280110Z 14013KT 28/20 A2966 RMK A01 T02840199  RH  063%=      5-min Rain = 0
KGDS 280115Z 14013G19KT 28/20 A2966 RMK A01 T02810198  RH  064%=      5-min Rain = 0
KGDS 280120Z 14014KT 28/20 A2966 RMK A01 T02810197  RH  064%=      5-min Rain = 0
KGDS 280125Z 14013G18KT 28/20 A2966 RMK A01 T02800196  RH  064%=      5-min Rain = 0
KGDS 280130Z 14012KT 28/20 A2966 RMK A01 T02780196  RH  065%=      5-min Rain = 0
KGDS 280135Z 14011KT 28/20 A2967 RMK A01 T02760196  RH  065%=      5-min Rain = 0
KGDS 280140Z 14012KT 27/20 A2967 RMK A01 T02740196  RH  066%=      5-min Rain = 0
KGDS 280145Z 15012G18KT 27/20 A2967 RMK A01 T02730195  RH  066%=      5-min Rain = 0
KGDS 280150Z 15013G18KT 27/19 A2967 RMK A01 T02730194  RH  066%=      5-min Rain = 0
KGDS 280155Z 15012KT 27/19 A2967 RMK A01 T02720193  RH  066%=      5-min Rain = 0
KGDS 280200Z 14011KT 27/19 A2967 RMK A01 T02700194  RH  067%=      5-min Rain = 0
KGDS 280205Z 14010KT 27/19 A2967 RMK A01 T02680194  RH  068%=      5-min Rain = 0
KGDS 280210Z 14011KT 27/19 A2967 RMK A01 T02670194  RH  068%=      5-min Rain = 0
KGDS 280215Z 14011KT 27/19 A2967 RMK A01 T02660194  RH  068%=      5-min Rain = 0
KGDS 280220Z 14011KT 26/19 A2967 RMK A01 T02640193  RH  069%=      5-min Rain = 0
KGDS 280225Z 14010KT 26/19 A2967 RMK A01 T02620194  RH  070%=      5-min Rain = 0
KGDS 280230Z 14010KT 26/19 A2967 RMK A01 T02600193  RH  071%=      5-min Rain = 0
KGDS 280235Z 14011KT 26/19 A2967 RMK A01 T02580194  RH  072%=      5-min Rain = 0
KGDS 280240Z 14011KT 26/19 A2967 RMK A01 T02580194  RH  072%=      5-min Rain = 0
KGDS 280245Z 14011KT 26/19 A2967 RMK A01 T02570194  RH  072%=      5-min Rain = 0
KGDS 280250Z 14011KT 26/19 A2967 RMK A01 T02570194  RH  072%=      5-min Rain = 0
KGDS 280255Z 14011KT 26/19 A2967 RMK A01 T02560193  RH  072%=      5-min Rain = 0
KGDS 280300Z 14013KT 26/19 A2967 RMK A01 T02560192  RH  072%=      5-min Rain = 0
KGDS 280305Z 14013KT 26/19 A2967 RMK A01 T02560191  RH  071%=      5-min Rain = 0
KGDS 280310Z 14013KT 26/19 A2967 RMK A01 T02560190  RH  071%=      5-min Rain = 0
KGDS 280315Z 14013KT 26/19 A2967 RMK A01 T02550189  RH  071%=      5-min Rain = 0
KGDS 280320Z 14013G19KT 26/19 A2967 RMK A01 T02550188  RH  071%=      5-min Rain = 0
KGDS 280325Z 14013KT 25/19 A2968 RMK A01 T02530188  RH  071%=      5-min Rain = 0
KGDS 280330Z 14013KT 25/19 A2968 RMK A01 T02540187  RH  070%=      5-min Rain = 0
KGDS 280335Z 14012KT 25/19 A2968 RMK A01 T02520187  RH  071%=      5-min Rain = 0
KGDS 280340Z 14013KT 25/19 A2968 RMK A01 T02520186  RH  071%=      5-min Rain = 0
KGDS 280345Z 14012KT 25/19 A2968 RMK A01 T02500187  RH  071%=      5-min Rain = 0
KGDS 280350Z 14014KT 25/19 A2968 RMK A01 T02510186  RH  071%=      5-min Rain = 0
KGDS 280355Z 14013KT 25/19 A2968 RMK A01 T02500186  RH  071%=      5-min Rain = 0
KGDS 280400Z 14014KT 25/19 A2968 RMK A01 T02490186  RH  072%=      5-min Rain = 0
KGDS 280405Z 14014G19KT 25/19 A2968 RMK A01 T02490185  RH  071%=      5-min Rain = 0
KGDS 280410Z 14014KT 25/19 A2967 RMK A01 T02480185  RH  072%=      5-min Rain = 0
KGDS 280415Z 14014G19KT 25/19 A2967 RMK A01 T02470185  RH  072%=      5-min Rain = 0
KGDS 280420Z 14012KT 25/19 A2967 RMK A01 T02460185  RH  073%=      5-min Rain = 0
KGDS 280425Z 14015G20KT 25/19 A2967 RMK A01 T02450185  RH  073%=      5-min Rain = 0
KGDS 280430Z 15015G22KT 25/19 A2967 RMK A01 T02460185  RH  073%=      5-min Rain = 0
KGDS 280435Z 15015G20KT 25/19 A2967 RMK A01 T02460185  RH  073%=      5-min Rain = 0
KGDS 280440Z 15014G21KT 24/19 A2967 RMK A01 T02440186  RH  074%=      5-min Rain = 0
KGDS 280445Z 15015G20KT 24/19 A2967 RMK A01 T02420186  RH  075%=      5-min Rain = 0
KGDS 280450Z 15014G19KT 24/19 A2967 RMK A01 T02420186  RH  075%=      5-min Rain = 0
KGDS 280455Z 15016KT 24/19 A2967 RMK A01 T02420186  RH  075%=      5-min Rain = 0

Page generated in 0.0152 seconds.